sensor_id;sensor_type;location;lat;lon;timestamp;P1;durP1;ratioP1;P2;durP2;ratioP2
3453;SDS011;1741;51.294;8.608;2024-01-15T00:00:25;24.20;;;6.83;;
3453;SDS011;1741;51.294;8.608;2024-01-15T00:02:53;20.90;;;6.20;;
3453;SDS011;1741;51.294;8.608;2024-01-15T00:05:25;20.50;;;6.13;;
3453;SDS011;1741;51.294;8.608;2024-01-15T00:07:54;19.23;;;5.60;;
3453;SDS011;1741;51.294;8.608;2024-01-15T00:10:22;19.87;;;5.50;;
3453;SDS011;1741;51.294;8.608;2024-01-15T00:12:54;20.23;;;5.50;;
3453;SDS011;1741;51.294;8.608;2024-01-15T00:15:21;21.40;;;5.10;;
3453;SDS011;1741;51.294;8.608;2024-01-15T00:17:51;21.63;;;5.47;;
3453;SDS011;1741;51.294;8.608;2024-01-15T00:20:19;19.93;;;4.97;;
3453;SDS011;1741;51.294;8.608;2024-01-15T00:22:46;19.70;;;5.30;;
3453;SDS011;1741;51.294;8.608;2024-01-15T00:25:14;21.60;;;5.03;;
3453;SDS011;1741;51.294;8.608;2024-01-15T00:27:42;20.00;;;4.77;;
3453;SDS011;1741;51.294;8.608;2024-01-15T00:30:11;19.17;;;4.40;;
3453;SDS011;1741;51.294;8.608;2024-01-15T00:32:38;19.37;;;4.60;;
3453;SDS011;1741;51.294;8.608;2024-01-15T00:35:05;18.83;;;4.77;;
3453;SDS011;1741;51.294;8.608;2024-01-15T00:37:33;18.83;;;4.40;;
3453;SDS011;1741;51.294;8.608;2024-01-15T00:40:00;19.27;;;4.50;;
3453;SDS011;1741;51.294;8.608;2024-01-15T00:42:27;20.43;;;5.03;;
3453;SDS011;1741;51.294;8.608;2024-01-15T00:44:55;20.77;;;5.17;;
3453;SDS011;1741;51.294;8.608;2024-01-15T00:47:23;19.57;;;4.87;;
3453;SDS011;1741;51.294;8.608;2024-01-15T00:49:50;20.03;;;4.90;;
3453;SDS011;1741;51.294;8.608;2024-01-15T00:52:18;19.87;;;5.10;;
3453;SDS011;1741;51.294;8.608;2024-01-15T00:54:46;20.53;;;5.33;;
3453;SDS011;1741;51.294;8.608;2024-01-15T00:57:13;21.33;;;5.60;;
3453;SDS011;1741;51.294;8.608;2024-01-15T00:59:40;22.07;;;5.93;;
3453;SDS011;1741;51.294;8.608;2024-01-15T01:02:07;23.17;;;6.23;;
3453;SDS011;1741;51.294;8.608;2024-01-15T01:04:36;22.43;;;6.70;;
3453;SDS011;1741;51.294;8.608;2024-01-15T01:07:04;20.97;;;6.23;;
3453;SDS011;1741;51.294;8.608;2024-01-15T01:09:32;21.83;;;6.63;;
3453;SDS011;1741;51.294;8.608;2024-01-15T01:12:00;21.40;;;5.80;;
3453;SDS011;1741;51.294;8.608;2024-01-15T01:14:27;21.93;;;5.70;;
3453;SDS011;1741;51.294;8.608;2024-01-15T01:16:55;21.70;;;6.50;;
3453;SDS011;1741;51.294;8.608;2024-01-15T01:19:22;22.77;;;6.20;;
3453;SDS011;1741;51.294;8.608;2024-01-15T01:21:52;21.80;;;6.70;;
3453;SDS011;1741;51.294;8.608;2024-01-15T01:24:20;22.10;;;6.33;;
3453;SDS011;1741;51.294;8.608;2024-01-15T01:26:47;21.30;;;5.10;;
3453;SDS011;1741;51.294;8.608;2024-01-15T01:29:14;21.43;;;5.50;;
3453;SDS011;1741;51.294;8.608;2024-01-15T01:31:44;20.70;;;4.43;;
3453;SDS011;1741;51.294;8.608;2024-01-15T01:34:16;23.77;;;6.10;;
3453;SDS011;1741;51.294;8.608;2024-01-15T01:36:43;25.50;;;6.73;;
3453;SDS011;1741;51.294;8.608;2024-01-15T01:39:13;23.70;;;6.00;;
3453;SDS011;1741;51.294;8.608;2024-01-15T01:41:40;22.60;;;6.37;;
3453;SDS011;1741;51.294;8.608;2024-01-15T01:44:09;24.83;;;6.37;;
3453;SDS011;1741;51.294;8.608;2024-01-15T01:46:41;25.93;;;6.33;;
3453;SDS011;1741;51.294;8.608;2024-01-15T01:49:09;23.60;;;6.33;;
3453;SDS011;1741;51.294;8.608;2024-01-15T01:51:37;31.73;;;6.33;;
3453;SDS011;1741;51.294;8.608;2024-01-15T01:54:06;25.37;;;6.40;;
3453;SDS011;1741;51.294;8.608;2024-01-15T01:56:35;25.73;;;6.33;;
3453;SDS011;1741;51.294;8.608;2024-01-15T01:59:03;24.07;;;6.57;;
3453;SDS011;1741;51.294;8.608;2024-01-15T02:01:32;24.80;;;6.57;;
3453;SDS011;1741;51.294;8.608;2024-01-15T02:03:59;30.00;;;8.20;;
3453;SDS011;1741;51.294;8.608;2024-01-15T02:06:27;26.70;;;8.13;;
3453;SDS011;1741;51.294;8.608;2024-01-15T02:08:56;28.57;;;8.70;;
3453;SDS011;1741;51.294;8.608;2024-01-15T02:11:24;26.10;;;8.40;;
3453;SDS011;1741;51.294;8.608;2024-01-15T02:13:51;27.63;;;8.63;;
3453;SDS011;1741;51.294;8.608;2024-01-15T02:16:19;29.00;;;9.70;;
3453;SDS011;1741;51.294;8.608;2024-01-15T02:18:46;27.63;;;8.40;;
3453;SDS011;1741;51.294;8.608;2024-01-15T02:21:15;32.80;;;9.63;;
3453;SDS011;1741;51.294;8.608;2024-01-15T02:23:42;28.87;;;9.40;;
3453;SDS011;1741;51.294;8.608;2024-01-15T02:26:10;24.17;;;8.10;;
3453;SDS011;1741;51.294;8.608;2024-01-15T02:28:37;25.40;;;8.23;;
3453;SDS011;1741;51.294;8.608;2024-01-15T02:31:04;27.67;;;8.13;;
3453;SDS011;1741;51.294;8.608;2024-01-15T02:33:32;117.00;;;22.83;;
3453;SDS011;1741;51.294;8.608;2024-01-15T02:36:00;76.30;;;28.00;;
3453;SDS011;1741;51.294;8.608;2024-01-15T02:38:28;101.90;;;33.93;;
3453;SDS011;1741;51.294;8.608;2024-01-15T02:40:56;48.53;;;8.97;;
3453;SDS011;1741;51.294;8.608;2024-01-15T02:43:23;30.40;;;8.93;;
3453;SDS011;1741;51.294;8.608;2024-01-15T02:45:50;19.80;;;5.07;;
3453;SDS011;1741;51.294;8.608;2024-01-15T02:48:18;30.10;;;8.73;;
3453;SDS011;1741;51.294;8.608;2024-01-15T02:50:45;22.87;;;7.40;;
3453;SDS011;1741;51.294;8.608;2024-01-15T02:53:13;26.43;;;8.33;;
3453;SDS011;1741;51.294;8.608;2024-01-15T02:55:40;34.27;;;9.37;;
3453;SDS011;1741;51.294;8.608;2024-01-15T02:58:08;32.50;;;8.23;;
3453;SDS011;1741;51.294;8.608;2024-01-15T03:00:36;32.90;;;8.00;;
3453;SDS011;1741;51.294;8.608;2024-01-15T03:03:05;34.03;;;8.17;;
3453;SDS011;1741;51.294;8.608;2024-01-15T03:05:33;33.83;;;8.70;;
3453;SDS011;1741;51.294;8.608;2024-01-15T03:08:01;31.70;;;8.73;;
3453;SDS011;1741;51.294;8.608;2024-01-15T03:10:28;35.13;;;7.47;;
3453;SDS011;1741;51.294;8.608;2024-01-15T03:12:57;31.50;;;8.03;;
3453;SDS011;1741;51.294;8.608;2024-01-15T03:15:24;35.13;;;8.60;;
3453;SDS011;1741;51.294;8.608;2024-01-15T03:17:52;33.40;;;8.53;;
3453;SDS011;1741;51.294;8.608;2024-01-15T03:20:20;33.37;;;8.60;;
3453;SDS011;1741;51.294;8.608;2024-01-15T03:22:48;29.50;;;8.23;;
3453;SDS011;1741;51.294;8.608;2024-01-15T03:25:15;30.97;;;7.57;;
3453;SDS011;1741;51.294;8.608;2024-01-15T03:27:43;32.80;;;8.27;;
3453;SDS011;1741;51.294;8.608;2024-01-15T03:30:10;35.33;;;7.20;;
3453;SDS011;1741;51.294;8.608;2024-01-15T03:32:38;45.90;;;8.30;;
3453;SDS011;1741;51.294;8.608;2024-01-15T03:35:06;31.33;;;7.63;;
3453;SDS011;1741;51.294;8.608;2024-01-15T03:37:35;54.17;;;9.50;;
3453;SDS011;1741;51.294;8.608;2024-01-15T03:40:02;32.57;;;6.90;;
3453;SDS011;1741;51.294;8.608;2024-01-15T03:42:32;32.93;;;8.13;;
3453;SDS011;1741;51.294;8.608;2024-01-15T03:45:00;43.03;;;9.00;;
3453;SDS011;1741;51.294;8.608;2024-01-15T03:47:27;36.87;;;7.87;;
3453;SDS011;1741;51.294;8.608;2024-01-15T03:49:54;40.77;;;8.20;;
3453;SDS011;1741;51.294;8.608;2024-01-15T03:52:21;49.83;;;8.47;;
3453;SDS011;1741;51.294;8.608;2024-01-15T03:54:49;36.30;;;7.97;;
3453;SDS011;1741;51.294;8.608;2024-01-15T03:57:16;34.70;;;8.40;;
3453;SDS011;1741;51.294;8.608;2024-01-15T03:59:44;35.20;;;8.10;;
3453;SDS011;1741;51.294;8.608;2024-01-15T04:02:14;36.13;;;8.30;;
3453;SDS011;1741;51.294;8.608;2024-01-15T04:04:42;42.57;;;8.00;;
3453;SDS011;1741;51.294;8.608;2024-01-15T04:07:10;44.43;;;8.00;;
3453;SDS011;1741;51.294;8.608;2024-01-15T04:09:37;41.00;;;7.87;;
3453;SDS011;1741;51.294;8.608;2024-01-15T04:12:06;36.53;;;8.17;;
3453;SDS011;1741;51.294;8.608;2024-01-15T04:14:34;28.97;;;7.00;;
3453;SDS011;1741;51.294;8.608;2024-01-15T04:17:02;17.90;;;7.27;;
3453;SDS011;1741;51.294;8.608;2024-01-15T04:19:30;16.10;;;6.73;;
3453;SDS011;1741;51.294;8.608;2024-01-15T04:21:58;17.80;;;7.77;;
3453;SDS011;1741;51.294;8.608;2024-01-15T04:24:27;20.83;;;6.67;;
3453;SDS011;1741;51.294;8.608;2024-01-15T04:26:55;17.13;;;6.17;;
3453;SDS011;1741;51.294;8.608;2024-01-15T04:29:23;17.47;;;7.33;;
3453;SDS011;1741;51.294;8.608;2024-01-15T04:31:51;23.70;;;6.87;;
3453;SDS011;1741;51.294;8.608;2024-01-15T04:34:20;21.27;;;6.63;;
3453;SDS011;1741;51.294;8.608;2024-01-15T04:36:47;23.10;;;6.73;;
3453;SDS011;1741;51.294;8.608;2024-01-15T04:39:14;23.20;;;7.33;;
3453;SDS011;1741;51.294;8.608;2024-01-15T04:41:43;99.60;;;25.87;;
3453;SDS011;1741;51.294;8.608;2024-01-15T04:44:11;38.23;;;8.00;;
3453;SDS011;1741;51.294;8.608;2024-01-15T04:46:39;1548.57;;;702.33;;
3453;SDS011;1741;51.294;8.608;2024-01-15T04:49:07;2266.67;;;999.90;;
3453;SDS011;1741;51.294;8.608;2024-01-15T04:51:38;2266.67;;;999.90;;
3453;SDS011;1741;51.294;8.608;2024-01-15T04:54:06;2266.67;;;999.90;;
3453;SDS011;1741;51.294;8.608;2024-01-15T04:56:33;2266.67;;;999.90;;
3453;SDS011;1741;51.294;8.608;2024-01-15T04:59:02;2266.67;;;999.90;;
3453;SDS011;1741;51.294;8.608;2024-01-15T05:01:31;1524.57;;;670.37;;
3453;SDS011;1741;51.294;8.608;2024-01-15T05:03:59;28.53;;;7.13;;
3453;SDS011;1741;51.294;8.608;2024-01-15T05:06:27;33.20;;;7.57;;
3453;SDS011;1741;51.294;8.608;2024-01-15T05:08:57;33.13;;;7.37;;
3453;SDS011;1741;51.294;8.608;2024-01-15T05:11:26;1022.13;;;524.60;;
3453;SDS011;1741;51.294;8.608;2024-01-15T05:13:53;48.03;;;8.83;;
3453;SDS011;1741;51.294;8.608;2024-01-15T05:16:21;21.67;;;7.17;;
3453;SDS011;1741;51.294;8.608;2024-01-15T05:18:48;92.10;;;9.90;;
3453;SDS011;1741;51.294;8.608;2024-01-15T05:21:16;21.57;;;7.93;;
3453;SDS011;1741;51.294;8.608;2024-01-15T05:23:43;24.43;;;7.13;;
3453;SDS011;1741;51.294;8.608;2024-01-15T05:26:11;24.00;;;7.57;;
3453;SDS011;1741;51.294;8.608;2024-01-15T05:28:38;35.53;;;8.17;;
3453;SDS011;1741;51.294;8.608;2024-01-15T05:31:05;21.10;;;7.40;;
3453;SDS011;1741;51.294;8.608;2024-01-15T05:33:35;29.23;;;6.87;;
3453;SDS011;1741;51.294;8.608;2024-01-15T05:36:03;23.03;;;6.77;;
3453;SDS011;1741;51.294;8.608;2024-01-15T05:38:31;20.47;;;7.03;;
3453;SDS011;1741;51.294;8.608;2024-01-15T05:40:59;20.37;;;6.50;;
3453;SDS011;1741;51.294;8.608;2024-01-15T05:43:26;22.47;;;6.60;;
3453;SDS011;1741;51.294;8.608;2024-01-15T05:45:53;22.00;;;7.10;;
3453;SDS011;1741;51.294;8.608;2024-01-15T05:48:20;26.10;;;7.10;;
3453;SDS011;1741;51.294;8.608;2024-01-15T05:50:49;23.47;;;6.73;;
3453;SDS011;1741;51.294;8.608;2024-01-15T05:53:17;21.80;;;6.37;;
3453;SDS011;1741;51.294;8.608;2024-01-15T05:55:43;27.63;;;7.33;;
3453;SDS011;1741;51.294;8.608;2024-01-15T05:58:10;28.13;;;5.97;;
3453;SDS011;1741;51.294;8.608;2024-01-15T06:00:38;22.47;;;7.20;;
3453;SDS011;1741;51.294;8.608;2024-01-15T06:03:08;31.67;;;6.90;;
3453;SDS011;1741;51.294;8.608;2024-01-15T06:05:35;25.17;;;5.97;;
3453;SDS011;1741;51.294;8.608;2024-01-15T06:08:03;26.83;;;6.87;;
3453;SDS011;1741;51.294;8.608;2024-01-15T06:10:30;24.40;;;6.30;;
3453;SDS011;1741;51.294;8.608;2024-01-15T06:12:58;24.40;;;6.70;;
3453;SDS011;1741;51.294;8.608;2024-01-15T06:15:26;23.50;;;7.03;;
3453;SDS011;1741;51.294;8.608;2024-01-15T06:20:47;17.67;;;6.60;;
3453;SDS011;1741;51.294;8.608;2024-01-15T06:23:15;14.93;;;6.67;;
3453;SDS011;1741;51.294;8.608;2024-01-15T06:25:46;21.90;;;5.90;;
3453;SDS011;1741;51.294;8.608;2024-01-15T06:28:14;13.90;;;5.80;;
3453;SDS011;1741;51.294;8.608;2024-01-15T06:30:42;14.03;;;5.50;;
3453;SDS011;1741;51.294;8.608;2024-01-15T06:33:09;15.60;;;6.67;;
3453;SDS011;1741;51.294;8.608;2024-01-15T06:35:37;7.87;;;4.83;;
3453;SDS011;1741;51.294;8.608;2024-01-15T06:38:05;10.97;;;5.60;;
3453;SDS011;1741;51.294;8.608;2024-01-15T06:40:33;16.23;;;6.27;;
3453;SDS011;1741;51.294;8.608;2024-01-15T06:43:01;14.80;;;5.53;;
3453;SDS011;1741;51.294;8.608;2024-01-15T06:45:29;24.53;;;6.67;;
3453;SDS011;1741;51.294;8.608;2024-01-15T06:47:57;12.40;;;5.87;;
3453;SDS011;1741;51.294;8.608;2024-01-15T06:50:26;21.90;;;5.87;;
3453;SDS011;1741;51.294;8.608;2024-01-15T06:52:55;11.83;;;5.23;;
3453;SDS011;1741;51.294;8.608;2024-01-15T06:55:23;15.23;;;6.23;;
3453;SDS011;1741;51.294;8.608;2024-01-15T06:57:51;11.10;;;4.83;;
3453;SDS011;1741;51.294;8.608;2024-01-15T07:00:19;9.57;;;5.17;;
3453;SDS011;1741;51.294;8.608;2024-01-15T07:02:47;13.93;;;5.00;;
3453;SDS011;1741;51.294;8.608;2024-01-15T07:05:15;10.77;;;4.70;;
3453;SDS011;1741;51.294;8.608;2024-01-15T07:07:42;13.63;;;4.57;;
3453;SDS011;1741;51.294;8.608;2024-01-15T07:10:10;13.73;;;6.17;;
3453;SDS011;1741;51.294;8.608;2024-01-15T07:12:39;20.23;;;6.13;;
3453;SDS011;1741;51.294;8.608;2024-01-15T07:15:09;12.53;;;5.53;;
3453;SDS011;1741;51.294;8.608;2024-01-15T07:17:37;16.60;;;6.80;;
3453;SDS011;1741;51.294;8.608;2024-01-15T07:20:06;14.70;;;6.37;;
3453;SDS011;1741;51.294;8.608;2024-01-15T07:22:38;9.33;;;5.30;;
3453;SDS011;1741;51.294;8.608;2024-01-15T07:25:07;12.97;;;6.17;;
3453;SDS011;1741;51.294;8.608;2024-01-15T07:27:35;11.50;;;5.33;;
3453;SDS011;1741;51.294;8.608;2024-01-15T07:30:02;15.87;;;5.40;;
3453;SDS011;1741;51.294;8.608;2024-01-15T07:32:32;8.70;;;5.23;;
3453;SDS011;1741;51.294;8.608;2024-01-15T07:35:00;8.27;;;4.43;;
3453;SDS011;1741;51.294;8.608;2024-01-15T07:37:27;6.60;;;4.60;;
3453;SDS011;1741;51.294;8.608;2024-01-15T07:39:55;8.40;;;4.80;;
3453;SDS011;1741;51.294;8.608;2024-01-15T07:42:23;11.47;;;4.60;;
3453;SDS011;1741;51.294;8.608;2024-01-15T07:44:51;13.07;;;5.10;;
3453;SDS011;1741;51.294;8.608;2024-01-15T07:47:18;11.23;;;4.90;;
3453;SDS011;1741;51.294;8.608;2024-01-15T07:49:46;10.70;;;4.43;;
3453;SDS011;1741;51.294;8.608;2024-01-15T07:52:13;8.37;;;4.57;;
3453;SDS011;1741;51.294;8.608;2024-01-15T07:54:41;8.23;;;4.07;;
3453;SDS011;1741;51.294;8.608;2024-01-15T07:57:10;8.57;;;3.60;;
3453;SDS011;1741;51.294;8.608;2024-01-15T07:59:37;7.90;;;4.40;;
3453;SDS011;1741;51.294;8.608;2024-01-15T08:02:06;11.60;;;5.00;;
3453;SDS011;1741;51.294;8.608;2024-01-15T08:04:34;8.33;;;4.27;;
3453;SDS011;1741;51.294;8.608;2024-01-15T08:07:02;8.47;;;4.77;;
3453;SDS011;1741;51.294;8.608;2024-01-15T08:09:30;8.37;;;4.13;;
3453;SDS011;1741;51.294;8.608;2024-01-15T08:11:57;5.30;;;3.50;;
3453;SDS011;1741;51.294;8.608;2024-01-15T08:14:25;8.40;;;3.70;;
3453;SDS011;1741;51.294;8.608;2024-01-15T08:16:52;6.30;;;4.03;;
3453;SDS011;1741;51.294;8.608;2024-01-15T08:19:20;8.37;;;4.50;;
3453;SDS011;1741;51.294;8.608;2024-01-15T08:21:48;10.23;;;4.63;;
3453;SDS011;1741;51.294;8.608;2024-01-15T08:24:16;6.30;;;4.37;;
3453;SDS011;1741;51.294;8.608;2024-01-15T08:26:46;7.63;;;4.23;;
3453;SDS011;1741;51.294;8.608;2024-01-15T08:29:13;7.90;;;4.70;;
3453;SDS011;1741;51.294;8.608;2024-01-15T08:31:41;8.70;;;4.57;;
3453;SDS011;1741;51.294;8.608;2024-01-15T08:34:10;7.10;;;4.40;;
3453;SDS011;1741;51.294;8.608;2024-01-15T08:36:37;7.80;;;4.83;;
3453;SDS011;1741;51.294;8.608;2024-01-15T08:39:04;8.60;;;4.93;;
3453;SDS011;1741;51.294;8.608;2024-01-15T08:41:32;5.77;;;4.10;;
3453;SDS011;1741;51.294;8.608;2024-01-15T08:44:03;6.33;;;4.63;;
3453;SDS011;1741;51.294;8.608;2024-01-15T08:46:31;10.43;;;4.90;;
3453;SDS011;1741;51.294;8.608;2024-01-15T08:48:58;7.53;;;4.90;;
3453;SDS011;1741;51.294;8.608;2024-01-15T08:51:27;8.20;;;6.10;;
3453;SDS011;1741;51.294;8.608;2024-01-15T08:53:55;5.70;;;4.07;;
3453;SDS011;1741;51.294;8.608;2024-01-15T08:56:23;4.90;;;4.30;;
3453;SDS011;1741;51.294;8.608;2024-01-15T08:58:50;6.80;;;4.80;;
3453;SDS011;1741;51.294;8.608;2024-01-15T09:01:18;5.73;;;4.27;;
3453;SDS011;1741;51.294;8.608;2024-01-15T09:03:46;5.60;;;4.50;;
3453;SDS011;1741;51.294;8.608;2024-01-15T09:06:15;5.40;;;4.30;;
3453;SDS011;1741;51.294;8.608;2024-01-15T09:08:44;7.30;;;4.60;;
3453;SDS011;1741;51.294;8.608;2024-01-15T09:11:11;6.90;;;4.97;;
3453;SDS011;1741;51.294;8.608;2024-01-15T09:13:39;9.30;;;5.50;;
3453;SDS011;1741;51.294;8.608;2024-01-15T09:16:06;6.70;;;4.50;;
3453;SDS011;1741;51.294;8.608;2024-01-15T09:18:34;8.70;;;5.50;;
3453;SDS011;1741;51.294;8.608;2024-01-15T09:21:03;7.27;;;4.50;;
3453;SDS011;1741;51.294;8.608;2024-01-15T09:23:31;8.83;;;4.40;;
3453;SDS011;1741;51.294;8.608;2024-01-15T09:26:01;8.83;;;4.93;;
3453;SDS011;1741;51.294;8.608;2024-01-15T09:28:29;8.60;;;5.07;;
3453;SDS011;1741;51.294;8.608;2024-01-15T09:30:57;12.97;;;4.57;;
3453;SDS011;1741;51.294;8.608;2024-01-15T09:33:26;11.43;;;4.30;;
3453;SDS011;1741;51.294;8.608;2024-01-15T09:35:55;8.10;;;4.90;;
3453;SDS011;1741;51.294;8.608;2024-01-15T09:38:23;7.73;;;4.27;;
3453;SDS011;1741;51.294;8.608;2024-01-15T09:40:51;8.93;;;4.30;;
3453;SDS011;1741;51.294;8.608;2024-01-15T09:43:19;8.70;;;5.00;;
3453;SDS011;1741;51.294;8.608;2024-01-15T09:45:46;7.17;;;4.30;;
3453;SDS011;1741;51.294;8.608;2024-01-15T09:48:15;9.23;;;4.83;;
3453;SDS011;1741;51.294;8.608;2024-01-15T09:50:43;6.73;;;4.10;;
3453;SDS011;1741;51.294;8.608;2024-01-15T09:53:12;6.60;;;4.27;;
3453;SDS011;1741;51.294;8.608;2024-01-15T09:55:43;7.60;;;4.73;;
3453;SDS011;1741;51.294;8.608;2024-01-15T09:58:11;7.80;;;4.90;;
3453;SDS011;1741;51.294;8.608;2024-01-15T10:00:41;6.77;;;4.47;;
3453;SDS011;1741;51.294;8.608;2024-01-15T10:03:13;7.50;;;4.70;;
3453;SDS011;1741;51.294;8.608;2024-01-15T10:05:46;7.73;;;5.00;;
3453;SDS011;1741;51.294;8.608;2024-01-15T10:08:18;7.43;;;5.00;;
3453;SDS011;1741;51.294;8.608;2024-01-15T10:10:50;8.10;;;5.43;;
3453;SDS011;1741;51.294;8.608;2024-01-15T10:13:25;7.33;;;5.20;;
3453;SDS011;1741;51.294;8.608;2024-01-15T10:15:53;8.40;;;4.83;;
3453;SDS011;1741;51.294;8.608;2024-01-15T10:18:21;7.00;;;4.60;;
3453;SDS011;1741;51.294;8.608;2024-01-15T10:20:48;9.70;;;5.10;;
3453;SDS011;1741;51.294;8.608;2024-01-15T10:23:18;8.50;;;4.73;;
3453;SDS011;1741;51.294;8.608;2024-01-15T10:25:46;9.00;;;4.80;;
3453;SDS011;1741;51.294;8.608;2024-01-15T10:28:13;8.37;;;4.50;;
3453;SDS011;1741;51.294;8.608;2024-01-15T10:30:42;7.13;;;4.10;;
3453;SDS011;1741;51.294;8.608;2024-01-15T10:33:10;6.10;;;3.37;;
3453;SDS011;1741;51.294;8.608;2024-01-15T10:35:38;6.70;;;3.53;;
3453;SDS011;1741;51.294;8.608;2024-01-15T10:38:06;6.93;;;3.60;;
3453;SDS011;1741;51.294;8.608;2024-01-15T10:40:34;6.20;;;3.50;;
3453;SDS011;1741;51.294;8.608;2024-01-15T10:43:01;5.70;;;3.00;;
3453;SDS011;1741;51.294;8.608;2024-01-15T10:45:29;6.13;;;3.07;;
3453;SDS011;1741;51.294;8.608;2024-01-15T10:47:57;6.00;;;3.30;;
3453;SDS011;1741;51.294;8.608;2024-01-15T10:50:26;6.57;;;3.20;;
3453;SDS011;1741;51.294;8.608;2024-01-15T10:52:54;3.30;;;2.67;;
3453;SDS011;1741;51.294;8.608;2024-01-15T10:55:25;4.13;;;2.80;;
3453;SDS011;1741;51.294;8.608;2024-01-15T10:57:54;4.90;;;2.90;;
3453;SDS011;1741;51.294;8.608;2024-01-15T11:00:23;4.30;;;2.77;;
3453;SDS011;1741;51.294;8.608;2024-01-15T11:02:53;5.03;;;2.10;;
3453;SDS011;1741;51.294;8.608;2024-01-15T11:05:24;3.83;;;2.60;;
3453;SDS011;1741;51.294;8.608;2024-01-15T11:07:55;4.10;;;2.60;;
3453;SDS011;1741;51.294;8.608;2024-01-15T11:10:39;4.37;;;2.60;;
3453;SDS011;1741;51.294;8.608;2024-01-15T11:21:25;4.50;;;3.10;;
3453;SDS011;1741;51.294;8.608;2024-01-15T11:24:02;4.03;;;3.10;;
3453;SDS011;1741;51.294;8.608;2024-01-15T11:29:06;4.30;;;3.57;;
3453;SDS011;1741;51.294;8.608;2024-01-15T11:34:08;4.50;;;3.40;;
3453;SDS011;1741;51.294;8.608;2024-01-15T11:39:47;4.33;;;2.87;;
3453;SDS011;1741;51.294;8.608;2024-01-15T11:42:11;4.37;;;2.43;;
3453;SDS011;1741;51.294;8.608;2024-01-15T11:44:39;4.97;;;2.80;;
3453;SDS011;1741;51.294;8.608;2024-01-15T11:47:07;4.80;;;3.20;;
3453;SDS011;1741;51.294;8.608;2024-01-15T11:52:22;3.30;;;2.70;;
3453;SDS011;1741;51.294;8.608;2024-01-15T12:00:07;4.20;;;3.10;;
3453;SDS011;1741;51.294;8.608;2024-01-15T12:02:42;5.03;;;3.07;;
3453;SDS011;1741;51.294;8.608;2024-01-15T12:05:14;16.17;;;3.00;;
3453;SDS011;1741;51.294;8.608;2024-01-15T12:07:46;55.53;;;19.53;;
3453;SDS011;1741;51.294;8.608;2024-01-15T12:10:17;102.33;;;13.30;;
3453;SDS011;1741;51.294;8.608;2024-01-15T12:15:15;3.40;;;3.30;;
3453;SDS011;1741;51.294;8.608;2024-01-15T12:17:43;3.60;;;3.50;;
3453;SDS011;1741;51.294;8.608;2024-01-15T12:20:13;4.00;;;3.70;;
3453;SDS011;1741;51.294;8.608;2024-01-15T12:22:42;3.77;;;3.57;;
3453;SDS011;1741;51.294;8.608;2024-01-15T12:25:26;4.07;;;3.77;;
3453;SDS011;1741;51.294;8.608;2024-01-15T12:27:54;3.80;;;3.57;;
3453;SDS011;1741;51.294;8.608;2024-01-15T12:30:22;3.53;;;3.23;;
3453;SDS011;1741;51.294;8.608;2024-01-15T12:32:50;3.57;;;3.30;;
3453;SDS011;1741;51.294;8.608;2024-01-15T12:35:19;4.00;;;3.70;;
3453;SDS011;1741;51.294;8.608;2024-01-15T12:37:47;4.57;;;3.43;;
3453;SDS011;1741;51.294;8.608;2024-01-15T12:40:18;3.40;;;3.10;;
3453;SDS011;1741;51.294;8.608;2024-01-15T12:42:51;3.67;;;3.53;;
3453;SDS011;1741;51.294;8.608;2024-01-15T12:45:21;8.90;;;3.60;;
3453;SDS011;1741;51.294;8.608;2024-01-15T12:47:53;4.10;;;3.80;;
3453;SDS011;1741;51.294;8.608;2024-01-15T12:50:24;4.00;;;3.70;;
3453;SDS011;1741;51.294;8.608;2024-01-15T12:52:52;119.57;;;33.20;;
3453;SDS011;1741;51.294;8.608;2024-01-15T12:55:21;4.70;;;4.00;;
3453;SDS011;1741;51.294;8.608;2024-01-15T12:57:53;6.83;;;4.10;;
3453;SDS011;1741;51.294;8.608;2024-01-15T13:00:24;4.30;;;4.00;;
3453;SDS011;1741;51.294;8.608;2024-01-15T13:02:53;5.27;;;4.77;;
3453;SDS011;1741;51.294;8.608;2024-01-15T13:05:24;4.83;;;4.27;;
3453;SDS011;1741;51.294;8.608;2024-01-15T13:07:54;6.00;;;4.90;;
3453;SDS011;1741;51.294;8.608;2024-01-15T13:10:25;6.20;;;4.80;;
3453;SDS011;1741;51.294;8.608;2024-01-15T13:12:56;4.50;;;4.07;;
3453;SDS011;1741;51.294;8.608;2024-01-15T13:15:26;6.07;;;3.70;;
3453;SDS011;1741;51.294;8.608;2024-01-15T13:17:56;4.67;;;4.17;;
3453;SDS011;1741;51.294;8.608;2024-01-15T13:20:26;4.53;;;3.77;;
3453;SDS011;1741;51.294;8.608;2024-01-15T13:22:59;11.20;;;4.40;;
3453;SDS011;1741;51.294;8.608;2024-01-15T13:25:26;5.10;;;3.67;;
3453;SDS011;1741;51.294;8.608;2024-01-15T13:27:56;5.23;;;3.97;;
3453;SDS011;1741;51.294;8.608;2024-01-15T13:30:26;3.97;;;3.60;;
3453;SDS011;1741;51.294;8.608;2024-01-15T13:32:54;6.40;;;4.27;;
3453;SDS011;1741;51.294;8.608;2024-01-15T13:35:22;6.87;;;4.33;;
3453;SDS011;1741;51.294;8.608;2024-01-15T13:37:50;9.93;;;4.27;;
3453;SDS011;1741;51.294;8.608;2024-01-15T13:40:19;10.70;;;4.80;;
3453;SDS011;1741;51.294;8.608;2024-01-15T13:42:50;4.83;;;4.40;;
3453;SDS011;1741;51.294;8.608;2024-01-15T13:45:20;8.90;;;4.40;;
3453;SDS011;1741;51.294;8.608;2024-01-15T13:47:48;7.43;;;4.40;;
3453;SDS011;1741;51.294;8.608;2024-01-15T13:50:17;9.63;;;4.53;;
3453;SDS011;1741;51.294;8.608;2024-01-15T13:52:48;6.33;;;4.23;;
3453;SDS011;1741;51.294;8.608;2024-01-15T13:55:15;4.37;;;4.00;;
3453;SDS011;1741;51.294;8.608;2024-01-15T13:57:46;4.20;;;3.80;;
3453;SDS011;1741;51.294;8.608;2024-01-15T14:00:15;5.03;;;4.00;;
3453;SDS011;1741;51.294;8.608;2024-01-15T14:02:47;6.67;;;4.33;;
3453;SDS011;1741;51.294;8.608;2024-01-15T14:05:18;4.87;;;4.20;;
3453;SDS011;1741;51.294;8.608;2024-01-15T14:07:46;4.10;;;3.73;;
3453;SDS011;1741;51.294;8.608;2024-01-15T14:10:17;5.17;;;4.73;;
3453;SDS011;1741;51.294;8.608;2024-01-15T14:12:53;9.23;;;4.20;;
3453;SDS011;1741;51.294;8.608;2024-01-15T14:15:20;10.03;;;4.97;;
3453;SDS011;1741;51.294;8.608;2024-01-15T14:17:48;5.30;;;4.67;;
3453;SDS011;1741;51.294;8.608;2024-01-15T14:20:16;10.90;;;5.20;;
3453;SDS011;1741;51.294;8.608;2024-01-15T14:22:51;4.77;;;4.37;;
3453;SDS011;1741;51.294;8.608;2024-01-15T14:25:18;4.67;;;4.27;;
3453;SDS011;1741;51.294;8.608;2024-01-15T14:27:48;6.97;;;4.60;;
3453;SDS011;1741;51.294;8.608;2024-01-15T14:30:19;4.67;;;4.33;;
3453;SDS011;1741;51.294;8.608;2024-01-15T14:32:49;4.83;;;4.37;;
3453;SDS011;1741;51.294;8.608;2024-01-15T14:35:20;7.53;;;4.57;;
3453;SDS011;1741;51.294;8.608;2024-01-15T14:37:47;7.30;;;4.73;;
3453;SDS011;1741;51.294;8.608;2024-01-15T14:40:15;5.27;;;3.67;;
3453;SDS011;1741;51.294;8.608;2024-01-15T14:42:43;4.37;;;3.97;;
3453;SDS011;1741;51.294;8.608;2024-01-15T14:45:11;4.00;;;3.43;;
3453;SDS011;1741;51.294;8.608;2024-01-15T14:47:39;4.57;;;3.87;;
3453;SDS011;1741;51.294;8.608;2024-01-15T14:50:10;3.60;;;2.73;;
3453;SDS011;1741;51.294;8.608;2024-01-15T14:52:39;7.67;;;3.77;;
3453;SDS011;1741;51.294;8.608;2024-01-15T14:55:10;5.83;;;3.10;;
3453;SDS011;1741;51.294;8.608;2024-01-15T14:57:41;5.17;;;3.60;;
3453;SDS011;1741;51.294;8.608;2024-01-15T15:00:11;5.10;;;4.10;;
3453;SDS011;1741;51.294;8.608;2024-01-15T15:02:41;8.33;;;4.60;;
3453;SDS011;1741;51.294;8.608;2024-01-15T15:05:09;6.80;;;4.20;;
3453;SDS011;1741;51.294;8.608;2024-01-15T15:07:45;6.23;;;3.40;;
3453;SDS011;1741;51.294;8.608;2024-01-15T15:10:14;11.13;;;4.50;;
3453;SDS011;1741;51.294;8.608;2024-01-15T15:12:45;6.97;;;5.17;;
3453;SDS011;1741;51.294;8.608;2024-01-15T15:15:12;4.87;;;4.33;;
3453;SDS011;1741;51.294;8.608;2024-01-15T15:17:49;5.80;;;4.50;;
3453;SDS011;1741;51.294;8.608;2024-01-15T15:20:16;5.30;;;4.20;;
3453;SDS011;1741;51.294;8.608;2024-01-15T15:22:45;8.50;;;5.10;;
3453;SDS011;1741;51.294;8.608;2024-01-15T15:25:13;7.23;;;5.07;;
3453;SDS011;1741;51.294;8.608;2024-01-15T15:27:40;6.63;;;3.50;;
3453;SDS011;1741;51.294;8.608;2024-01-15T15:30:07;6.93;;;5.20;;
3453;SDS011;1741;51.294;8.608;2024-01-15T15:32:38;9.80;;;5.87;;
3453;SDS011;1741;51.294;8.608;2024-01-15T15:35:11;5.20;;;4.27;;
3453;SDS011;1741;51.294;8.608;2024-01-15T15:37:40;8.30;;;5.37;;
3453;SDS011;1741;51.294;8.608;2024-01-15T15:40:08;13.27;;;6.00;;
3453;SDS011;1741;51.294;8.608;2024-01-15T15:42:37;11.10;;;4.80;;